Logan, Minnesota
Current Conditions -  °F | °C
As of 3:34 PM on Friday 19 Dec 2014 (Local Time) from KAIT Reporting Station
Haze Haze  
Wind Chill: 17°   Ceiling: 700
Heat Index: 27°   Visibility: 4mi
Dew Point: 21°   Wind: 10mph
Humidity: 80%   Direction: 140°SE
Pressure: 30.12"   Gusts: NA
Location:  46.7281°N, 93.6101°W
Report Text: KAIT 192134Z AUTO 14009KT 4SM HZ OVC007 M03/M06 A3012 RMK AO2
Loading
Personal Weather Stations






























Interactive Weather Map New forecast layout! Learn more

10-Day Weather Forecast

Advertisements
Track Severe Weather on mobile